Latest Weather Observations for Horn Island

IDQ60801

Issued at 3:32 pm EST Thursday 28 May 2020 (issued every 10 minutes, with the page automatically refreshed every 10 minutes)

About weather observations | Map of weather stations | Latest weather observations for QLD | Other Formats
Station Details ID: 027058 Name: HORN ISLAND Lat: -10.58 Lon: 142.29 Height: 4.0 m
Data from the previous 72 hours. | See also: Recent months at Horn Island
Date/Time
EST
Temp
°C
App
Temp
°C
Dew
Point
°C
Rel
Hum
%
Delta-T
°C
Wind Press
QNH
hPa
Press
MSL
hPa
Rain since
9am
mm
Dir  Spd
km/h
Gust
km/h
Spd
kts
Gust
kts
28/03:30pm 28.9 27.4 20.9 62 5.3 ESE 30 43 16 23 1013.1 1013.1 0.0
28/03:00pm 28.7 26.7 20.7 62 5.3 ESE 32 43 17 23 1013.0 1013.0 0.0
28/02:30pm 28.8 27.1 20.5 61 5.5 ESE 30 41 16 22 1013.4 1013.4 0.0
28/02:00pm 29.6 28.1 21.8 63 5.3 ESE 32 41 17 22 1013.5 1013.5 0.0
28/01:30pm 28.6 26.5 20.9 63 5.1 ESE 33 43 18 23 1013.9 1013.9 0.0
28/01:00pm 28.8 27.1 21.3 64 5.0 ESE 32 41 17 22 1014.2 1014.2 0.0
28/12:30pm 29.4 28.1 22.1 65 4.9 ESE 32 44 17 24 1014.6 1014.6 0.0
28/12:00pm 29.1 28.4 21.8 64 4.9 ESE 28 39 15 21 1015.0 1015.0 0.0
28/11:30am 29.2 28.3 22.2 66 4.7 ESE 30 39 16 21 1015.2 1015.2 0.0
28/11:00am 28.9 27.8 22.4 68 4.4 ESE 32 41 17 22 1015.3 1015.3 0.0
28/10:30am 28.5 28.6 22.5 70 4.1 SE 26 39 14 21 1015.4 1015.4 0.0
28/10:00am 28.3 27.6 22.5 71 3.9 ESE 30 39 16 21 1015.7 1015.7 0.0
28/09:30am 27.7 27.7 22.4 73 3.6 SE 26 33 14 18 1015.6 1015.6 0.0
28/09:00am 27.3 28.1 22.5 75 3.2 SE 22 33 12 18 1015.4 1015.4 0.0
28/08:30am 26.8 27.9 22.4 77 3.0 SE 20 30 11 16 1015.5 1015.5 0.0
28/08:00am 26.1 28.0 22.0 78 2.7 SE 15 20 8 11 1015.2 1015.2 0.0
28/07:30am 25.7 27.1 21.8 79 2.6 SE 17 26 9 14 1014.8 1014.8 0.0
28/07:00am 25.4 26.6 21.5 79 2.6 SSE 17 20 9 11 1014.6 1014.6 0.0
28/06:30am 25.4 26.6 21.5 79 2.6 SSE 17 24 9 13 1014.3 1014.3 0.0
28/06:00am 25.4 26.6 21.5 79 2.6 SE 17 26 9 14 1014.1 1014.1 0.0
28/05:30am 25.3 26.9 21.4 79 2.6 SSE 15 20 8 11 1014.0 1014.0 0.0
28/05:00am 25.4 27.4 21.5 79 2.6 SSE 13 22 7 12 1013.9 1013.9 0.0
28/04:30am 25.4 26.6 21.5 79 2.6 SE 17 20 9 11 1013.9 1013.9 0.0
28/04:00am 25.4 25.3 21.5 79 2.6 SE 24 32 13 17 1013.7 1013.7 0.0
28/03:30am 25.5 25.8 21.6 79 2.6 SE 22 30 12 16 1013.7 1013.7 0.0
28/03:00am 25.3 25.9 21.4 79 2.6 SE 20 28 11 15 1013.6 1013.6 0.0
28/02:30am 25.4 26.3 21.5 79 2.6 SE 19 24 10 13 1013.7 1013.7 0.0
28/02:00am 25.3 26.5 21.4 79 2.6 SE 17 28 9 15 1014.0 1014.0 0.0
28/01:30am 25.3 26.9 21.4 79 2.6 SE 15 24 8 13 1014.2 1014.2 0.0
28/01:00am 25.2 26.6 21.1 78 2.7 SE 15 22 8 12 1014.4 1014.4 0.0
28/12:30am 25.3 26.0 21.2 78 2.7 SE 19 26 10 14 1014.7 1014.7 0.0
28/12:00am 25.2 27.0 21.1 78 2.7 SE 13 19 7 10 1014.9 1014.9 0.0
 
Date/Time
EST
Temp
°C
App
Temp
°C
Dew
Point
°C
Rel
Hum
%
Delta-T
°C
Wind Press
QNH
hPa
Press
MSL
hPa
Rain since
9am
mm
Dir  Spd
km/h
Gust
km/h
Spd
kts
Gust
kts
27/11:30pm 25.1 26.0 20.8 77 2.8 SE 17 24 9 13 1015.2 1015.2 0.0
27/11:00pm 25.1 26.4 20.8 77 2.8 SE 15 20 8 11 1015.3 1015.3 0.0
27/10:30pm 25.3 26.2 20.8 76 3.0 SE 17 28 9 15 1015.6 1015.6 0.0
27/10:00pm 25.2 25.9 20.5 75 3.1 SE 17 24 9 13 1015.4 1015.4 0.0
27/09:30pm 25.4 25.8 20.6 75 3.1 SE 19 26 10 14 1015.4 1015.4 0.0
27/09:00pm 25.5 25.8 20.5 74 3.3 SE 19 26 10 14 1015.4 1015.4 0.0
27/08:30pm 25.5 26.2 20.5 74 3.3 SE 17 22 9 12 1015.3 1015.3 0.0
27/08:00pm 25.5 26.1 20.3 73 3.4 SE 17 26 9 14 1014.9 1014.9 0.0
27/07:30pm 25.9 26.1 20.2 71 3.7 SE 19 26 10 14 1014.5 1014.5 0.0
27/07:00pm 26.1 26.4 20.4 71 3.7 SE 19 24 10 13 1014.1 1014.1 0.0
27/06:30pm 26.3 26.4 20.4 70 3.9 SE 20 30 11 16 1013.7 1013.7 0.0
27/06:00pm 26.8 26.9 20.4 68 4.2 ESE 20 26 11 14 1013.3 1013.3 0.0
27/05:30pm 27.3 26.7 20.4 66 4.5 ESE 24 35 13 19 1013.0 1013.0 0.0
27/05:00pm 28.0 27.4 20.6 64 4.9 ESE 24 30 13 16 1012.9 1012.9 0.0
27/04:30pm 28.8 28.3 20.8 62 5.3 ESE 24 33 13 18 1012.9 1012.9 0.0
27/04:00pm 29.0 28.5 20.7 61 5.5 ESE 24 33 13 18 1013.1 1013.1 0.0
27/03:30pm 28.8 28.2 20.5 61 5.5 ESE 24 33 13 18 1013.1 1013.1 0.0
27/03:00pm 29.2 29.0 21.2 62 5.3 ESE 24 33 13 18 1013.3 1013.3 0.0
27/02:30pm 29.7 30.4 22.2 64 5.1 ESE 22 30 12 16 1013.6 1013.6 0.0
27/02:00pm 28.6 28.5 21.4 65 4.8 ESE 24 30 13 16 1013.9 1013.9 0.0
27/01:30pm 29.4 29.8 22.4 66 4.7 ESE 24 32 13 17 1014.3 1014.3 0.0
27/01:00pm 29.0 28.9 22.2 66 4.6 ESE 26 33 14 18 1014.5 1014.5 0.0
27/12:30pm 29.2 29.2 22.4 66 4.6 ESE 26 35 14 19 1015.1 1015.1 0.0
27/12:00pm 28.9 28.9 22.4 68 4.4 ESE 26 35 14 19 1015.6 1015.6 0.0
27/11:30am 28.9 29.2 22.9 70 4.1 ESE 26 35 14 19 1015.8 1015.8 0.0
27/11:00am 28.2 27.8 22.4 71 3.9 ESE 28 37 15 20 1016.0 1016.0 0.0
27/10:30am 28.3 28.1 22.8 72 3.7 ESE 28 39 15 21 1016.3 1016.3 0.0
27/10:00am 27.7 28.1 22.4 73 3.6 ESE 24 33 13 18 1016.4 1016.4 0.0
27/09:30am 27.7 28.7 22.9 75 3.3 ESE 22 33 12 18 1016.5 1016.5 0.0
27/09:00am 26.8 27.6 22.4 77 3.0 ESE 22 30 12 16 1016.4 1016.4 0.0
27/08:30am 26.7 27.9 22.5 78 2.8 SE 20 30 11 16 1015.9 1015.9 0.0
27/08:00am 26.1 27.1 22.2 79 2.6 ESE 20 30 11 16 1015.6 1015.6 0.0
27/07:30am 25.6 27.0 21.9 80 2.5 SE 17 22 9 12 1015.4 1015.4 0.0
27/07:00am 25.3 26.3 21.8 81 2.3 SE 19 24 10 13 1015.2 1015.2 0.0
27/06:30am 25.0 25.9 21.5 81 2.3 ESE 19 24 10 13 1014.8 1014.8 0.0
27/06:00am 24.6 26.4 21.1 81 2.3 SE 13 20 7 11 1014.8 1014.8 0.0
27/05:30am 24.8 26.6 21.1 80 2.4 SE 13 17 7 9 1014.5 1014.5 0.0
27/05:00am 24.9 26.4 21.2 80 2.4 SE 15 20 8 11 1014.5 1014.5 0.0
27/04:30am 25.0 26.0 21.1 79 2.6 SE 17 24 9 13 1014.3 1014.3 0.0
27/04:00am 25.1 25.8 21.2 79 2.6 SE 19 24 10 13 1014.5 1014.5 0.0
27/03:30am 25.2 25.8 21.3 79 2.6 SE 20 30 11 16 1014.6 1014.6 0.0
27/03:00am 25.2 25.8 21.3 79 2.6 SE 20 26 11 14 1014.5 1014.5 0.0
27/02:30am 25.3 25.5 21.4 79 2.6 ESE 22 32 12 17 1014.8 1014.8 0.0
27/02:00am 25.4 26.1 21.5 79 2.6 ESE 20 28 11 15 1015.0 1015.0 0.0
27/01:30am 25.5 25.5 21.6 79 2.6 ESE 24 32 13 17 1015.1 1015.1 0.0
27/01:00am 25.5 25.4 21.4 78 2.7 SE 24 33 13 18 1015.4 1015.4 0.0
27/12:30am 25.5 25.4 21.4 78 2.7 ESE 24 32 13 17 1015.5 1015.5 0.0
27/12:00am 25.6 25.5 21.5 78 2.7 ESE 24 33 13 18 1015.6 1015.6 0.0
 
Date/Time
EST
Temp
°C
App
Temp
°C
Dew
Point
°C
Rel
Hum
%
Delta-T
°C
Wind Press
QNH
hPa
Press
MSL
hPa
Rain since
9am
mm
Dir  Spd
km/h
Gust
km/h
Spd
kts
Gust
kts
26/11:30pm 25.6 25.1 21.5 78 2.7 ESE 26 35 14 19 1015.8 1015.8 0.0
26/11:00pm 25.6 25.9 21.5 78 2.7 ESE 22 33 12 18 1015.9 1015.9 0.0
26/10:30pm 25.6 26.2 21.3 77 2.8 ESE 20 33 11 18 1016.0 1016.0 0.0
26/10:00pm 25.6 26.2 21.3 77 2.8 ESE 20 32 11 17 1015.9 1015.9 0.0
26/09:30pm 25.6 25.8 21.3 77 2.8 SE 22 32 12 17 1015.6 1015.6 0.0
26/09:00pm 25.7 26.3 21.4 77 2.8 SE 20 26 11 14 1015.4 1015.4 0.0
26/08:30pm 25.8 25.6 21.2 76 3.0 SE 24 33 13 18 1015.1 1015.1 0.0
26/08:00pm 25.9 25.7 21.3 76 3.0 SE 24 33 13 18 1014.8 1014.8 0.0
26/07:30pm 25.9 25.2 21.1 75 3.2 SE 26 35 14 19 1014.4 1014.4 0.0
26/07:00pm 25.9 25.1 20.9 74 3.3 SE 26 35 14 19 1014.0 1014.0 0.0
26/06:30pm 26.1 25.3 20.9 73 3.4 SE 26 35 14 19 1013.7 1013.7 0.0
26/06:00pm 26.5 25.8 21.0 72 3.6 ESE 26 35 14 19 1013.4 1013.4 0.0
26/05:30pm 27.1 26.5 21.2 70 3.9 ESE 26 37 14 20 1013.2 1013.2 0.0
26/05:00pm 27.5 27.0 21.5 70 4.0 ESE 26 35 14 19 1012.9 1012.9 0.0
26/04:30pm 27.9 27.5 21.7 69 4.2 ESE 26 35 14 19 1012.8 1012.8 0.0
26/04:00pm 28.0 27.1 21.5 67 4.3 ESE 28 37 15 20 1013.0 1013.0 0.0
26/03:30pm 28.7 29.0 22.2 68 4.4 ESE 24 35 13 19 1013.0 1013.0 0.0
26/03:00pm 28.5 27.9 22.0 68 4.4 ESE 28 35 15 19 1013.2 1013.2 0.0
26/02:30pm 28.9 28.5 22.4 68 4.4 ESE 28 37 15 20 1013.4 1013.4 0.0
26/02:00pm 29.1 28.8 22.6 68 4.4 ESE 28 35 15 19 1013.7 1013.7 0.0
26/01:30pm 29.0 28.5 22.2 66 4.6 ESE 28 35 15 19 1013.8 1013.8 0.0
26/01:00pm 29.5 29.5 23.0 68 4.4 E 28 37 15 20 1014.0 1014.0 0.0
26/12:30pm 29.7 29.8 23.2 68 4.5 ESE 28 35 15 19 1014.4 1014.4 0.0
26/12:00pm 29.2 29.3 23.2 70 4.1 ESE 28 35 15 19 1014.9 1014.9 0.0
26/11:30am 29.3 30.3 23.5 71 4.0 ESE 24 32 13 17 1015.1 1015.1 0.0
26/11:00am 28.3 28.6 23.0 73 3.6 ESE 26 35 14 19 1015.6 1015.6 0.0
26/10:30am 28.9 30.7 24.2 76 3.3 SE 22 32 12 17 1015.7 1015.7 0.0
26/10:00am 28.1 30.1 23.9 78 2.9 ESE 20 28 11 15 1015.9 1015.9 0.0
26/09:30am 27.1 28.8 23.1 79 2.7 SE 19 26 10 14 1016.1 1016.1 0.0
26/09:00am 27.1 29.7 23.3 80 2.6 SE 15 22 8 12 1016.1 1016.1 0.0
26/08:30am 26.3 29.0 22.8 81 2.4 SE 13 17 7 9 1016.0 1016.0 0.0
26/08:00am 25.8 28.3 22.5 82 2.2 SE 13 20 7 11 1015.7 1015.7 0.0
26/07:30am 25.5 27.9 22.2 82 2.2 SE 13 17 7 9 1015.5 1015.5 0.0
26/07:00am 25.2 27.4 21.9 82 2.2 SE 13 17 7 9 1015.2 1015.2 0.0
26/06:30am 25.1 27.1 21.6 81 2.3 SSE 13 19 7 10 1015.0 1015.0 0.0
26/06:00am 25.1 27.0 21.4 80 2.4 SE 13 19 7 10 1014.8 1014.8 0.0
26/05:30am 25.5 27.3 21.8 80 2.5 SE 15 20 8 11 1014.6 1014.6 0.0
26/05:00am 25.6 27.4 21.9 80 2.5 SE 15 20 8 11 1014.4 1014.4 0.0
26/04:30am 25.6 27.0 21.9 80 2.5 SE 17 24 9 13 1014.1 1014.1 0.0
26/04:00am 25.7 27.2 22.0 80 2.5 ESE 17 24 9 13 1014.0 1014.0 0.0
26/03:30am 25.7 27.1 21.8 79 2.6 SE 17 22 9 12 1014.1 1014.1 0.0
26/03:00am 25.6 26.9 21.7 79 2.6 SE 17 22 9 12 1014.1 1014.1 0.0
26/02:30am 25.7 26.7 21.8 79 2.6 SE 19 28 10 15 1014.2 1014.2 0.0
26/02:00am 25.9 27.4 22.0 79 2.6 SE 17 24 9 13 1014.3 1014.3 0.0
26/01:30am 25.9 26.8 22.0 79 2.6 ESE 20 28 11 15 1014.5 1014.5 0.0
26/01:00am 25.6 27.3 21.7 79 2.6 SE 15 19 8 10 1014.6 1014.6 0.0
26/12:30am 25.7 27.5 21.8 79 2.6 SE 15 19 8 10 1014.8 1014.8 0.0
26/12:00am 25.7 27.0 21.6 78 2.7 SE 17 22 9 12 1015.0 1015.0 0.0
 
Date/Time
EST
Temp
°C
App
Temp
°C
Dew
Point
°C
Rel
Hum
%
Delta-T
°C
Wind Press
QNH
hPa
Press
MSL
hPa
Rain since
9am
mm
Dir  Spd
km/h
Gust
km/h
Spd
kts
Gust
kts
25/11:30pm 25.6 26.8 21.5 78 2.7 SE 17 26 9 14 1015.2 1015.2 0.0
25/11:00pm 25.5 27.1 21.4 78 2.7 SE 15 20 8 11 1015.4 1015.4 0.0
25/10:30pm 25.5 26.7 21.4 78 2.7 SE 17 24 9 13 1015.7 1015.7 0.0
25/10:00pm 25.4 26.8 21.1 77 2.8 SE 15 20 8 11 1015.6 1015.6 0.0
25/09:30pm 25.5 26.6 21.2 77 2.8 SE 17 22 9 12 1015.6 1015.6 0.0
25/09:00pm 25.7 26.7 21.1 76 3.0 SE 17 22 9 12 1015.5 1015.5 0.0
25/08:30pm 25.6 26.9 20.8 75 3.2 SSE 15 20 8 11 1015.3 1015.3 0.0
25/08:00pm 25.7 26.6 20.9 75 3.2 SE 17 24 9 13 1015.1 1015.1 0.0
25/07:30pm 25.9 26.8 20.9 74 3.3 SE 17 20 9 11 1014.7 1014.7 0.0
25/07:00pm 26.0 27.0 21.0 74 3.3 SE 17 22 9 12 1014.4 1014.4 0.0
25/06:30pm 25.9 26.2 20.7 73 3.4 ESE 20 30 11 16 1014.2 1014.2 0.0
25/06:00pm 26.0 26.4 20.6 72 3.5 ESE 19 24 10 13 1013.9 1013.9 0.0
25/05:30pm 26.2 26.2 20.1 69 4.0 ESE 20 26 11 14 1013.5 1013.5 0.0
25/05:00pm 26.9 27.1 20.5 68 4.2 ESE 20 26 11 14 1013.2 1013.2 0.0
25/04:30pm 27.2 27.4 20.5 67 4.4 ESE 20 26 11 14 1013.0 1013.0 0.0
25/04:00pm 27.5 27.3 20.6 66 4.5 E 22 28 12 15 1012.9 1012.9 0.0

Other formats

Comma delimited format used in spreadsheet applications
http://www.bom.gov.au/fwo/IDQ60801/IDQ60801.94174.axf

JavaScript Object Notation format (JSON) in row-major order
http://www.bom.gov.au/fwo/IDQ60801/IDQ60801.94174.json

Data quality

Most of these data are generated automatically and are frequently updated. Quality checks on data are not normally performed. It is possible for incorrect values to appear. Refer to information at About Latest Weather Observations and please check the disclaimer before using these data.